Time;durP1;ratioP1;P1;durP2;ratioP2;P2;SDS_P1;SDS_P2;PMS_P1;PMS_P2;Temp;Humidity;BMP_temperature;BMP_pressure;BME280_temperature;BME280_humidity;BME280_pressure;Samples;Min_cycle;Max_cycle;Signal;HPM_P1;HPM_P2
2023/06/16 00:01:31;;;;;;;10.20;5.07;;;17.00;75.40;;;;;;5070735;28;20037;-83
2023/06/16 00:03:57;;;;;;;9.43;3.40;;;17.00;76.10;;;;;;5055736;28;20033;-83
2023/06/16 00:06:29;;;;;;;9.88;5.00;;;16.80;76.00;;;;;;5072387;28;20036;-83
2023/06/16 00:08:57;;;;;;;12.82;4.18;;;16.80;77.00;;;;;;5072126;28;20090;-83
2023/06/16 00:11:24;;;;;;;11.82;5.70;;;16.70;76.70;;;;;;5055215;28;20044;-83
2023/06/16 00:13:51;;;;;;;9.50;5.07;;;16.70;77.80;;;;;;5071455;28;20044;-83
2023/06/16 00:16:20;;;;;;;10.73;3.90;;;16.70;78.30;;;;;;5072187;28;20548;-83
2023/06/16 00:18:57;;;;;;;9.70;5.45;;;16.60;78.10;;;;;;5055123;28;20455;-83
2023/06/16 00:21:38;;;;;;;9.63;5.40;;;16.60;80.10;;;;;;5071656;28;20119;-83
2023/06/16 00:24:06;;;;;;;10.43;4.68;;;16.60;80.80;;;;;;5055216;28;20226;-83
2023/06/16 00:26:32;;;;;;;9.45;5.10;;;16.40;80.50;;;;;;5071736;28;20123;-83
2023/06/16 00:28:57;;;;;;;9.65;4.68;;;16.50;82.70;;;;;;5071651;28;20128;-83
2023/06/16 00:31:25;;;;;;;11.55;6.00;;;16.40;81.90;;;;;;5054866;28;20082;-83
2023/06/16 00:33:51;;;;;;;9.10;5.63;;;16.30;84.10;;;;;;5071823;28;20048;-83
2023/06/16 00:36:17;;;;;;;11.48;6.00;;;16.40;84.50;;;;;;5054829;28;20039;-83
2023/06/16 00:38:43;;;;;;;10.15;4.57;;;16.40;84.90;;;;;;5071446;28;20044;-83
2023/06/16 00:41:08;;;;;;;12.45;5.93;;;16.20;84.10;;;;;;5054327;28;20040;-83
2023/06/16 00:43:34;;;;;;;12.38;6.35;;;16.20;86.60;;;;;;5071614;28;20087;-83
2023/06/16 00:45:59;;;;;;;14.07;6.00;;;16.20;86.70;;;;;;5071335;28;20086;-83
2023/06/16 00:48:25;;;;;;;10.77;5.95;;;16.20;87.10;;;;;;5071255;28;20075;-83
2023/06/16 00:50:51;;;;;;;9.73;4.45;;;16.20;87.90;;;;;;5070852;28;20068;-83
2023/06/16 00:53:17;;;;;;;10.23;4.93;;;16.10;86.80;;;;;;5072296;28;20047;-83
2023/06/16 00:55:43;;;;;;;11.10;6.00;;;16.00;87.60;;;;;;5054886;28;20055;-83
2023/06/16 00:58:10;;;;;;;10.10;6.50;;;16.10;89.30;;;;;;5054522;28;20147;-83
2023/06/16 01:00:36;;;;;;;9.48;5.80;;;16.00;89.90;;;;;;5054179;28;20044;-83
2023/06/16 01:03:04;;;;;;;9.40;4.80;;;16.10;90.00;;;;;;5070970;28;20498;-83
2023/06/16 01:05:30;;;;;;;11.57;6.13;;;15.90;88.70;;;;;;5054204;28;20041;-83
2023/06/16 01:07:59;;;;;;;8.75;4.80;;;15.90;90.70;;;;;;5070951;28;20043;-83
2023/06/16 01:10:46;;;;;;;11.93;4.80;;;15.90;90.30;;;;;;5054186;28;20143;-83
2023/06/16 01:13:40;;;;;;;10.63;6.03;;;15.80;91.10;;;;;;5070429;28;20119;-83
2023/06/16 01:16:08;;;;;;;13.43;7.15;;;15.90;92.20;;;;;;5063405;28;20132;-83
2023/06/16 01:18:36;;;;;;;8.73;4.30;;;15.90;93.10;;;;;;5054085;28;20080;-83
2023/06/16 01:21:31;;;;;;;11.60;5.07;;;15.70;92.30;;;;;;5070272;28;20119;-83
2023/06/16 01:24:05;;;;;;;13.43;7.22;;;15.70;93.70;;;;;;5053998;28;20090;-83
2023/06/16 01:26:32;;;;;;;10.45;6.85;;;15.70;93.90;;;;;;5070706;28;20083;-83
2023/06/16 01:29:01;;;;;;;11.10;6.15;;;15.70;94.30;;;;;;5070615;28;20036;-83
2023/06/16 01:31:28;;;;;;;13.35;6.57;;;15.70;95.00;;;;;;5070260;28;20046;-83
2023/06/16 01:33:55;;;;;;;12.73;6.72;;;15.60;95.70;;;;;;5053924;28;20044;-83
2023/06/16 01:36:21;;;;;;;11.30;7.55;;;15.60;96.10;;;;;;5070416;28;20157;-84
2023/06/16 01:38:48;;;;;;;10.25;5.50;;;15.50;96.20;;;;;;5053890;28;20086;-83
2023/06/16 01:41:16;;;;;;;11.27;7.10;;;15.40;95.50;;;;;;5070220;28;20395;-83
2023/06/16 01:43:44;;;;;;;10.80;6.95;;;15.40;97.50;;;;;;5070521;28;20071;-83
2023/06/16 01:46:10;;;;;;;10.02;6.80;;;15.30;97.70;;;;;;5070701;28;20048;-83
2023/06/16 01:48:36;;;;;;;10.80;6.85;;;15.30;98.10;;;;;;5070212;28;20514;-83
2023/06/16 01:51:02;;;;;;;11.02;7.25;;;15.30;98.60;;;;;;5053204;28;20036;-83
2023/06/16 01:53:28;;;;;;;13.95;5.40;;;15.20;99.20;;;;;;5070497;28;20037;-83
2023/06/16 01:55:53;;;;;;;9.63;4.85;;;15.10;97.90;;;;;;5053368;28;20037;-83
2023/06/16 01:58:21;;;;;;;10.63;7.40;;;15.00;98.40;;;;;;5070255;28;20082;-83
2023/06/16 02:01:07;;;;;;;11.55;7.15;;;15.00;99.90;;;;;;5069952;28;20047;-83
2023/06/16 02:03:44;;;;;;;14.90;4.97;;;15.10;99.90;;;;;;5053411;28;20090;-82
2023/06/16 02:06:17;;;;;;;15.35;7.20;;;15.00;99.00;;;;;;5070318;28;20063;-83
2023/06/16 02:08:44;;;;;;;13.65;7.60;;;15.00;99.90;;;;;;5070336;28;20124;-83
2023/06/16 02:11:11;;;;;;;12.70;7.50;;;15.00;99.90;;;;;;5069826;28;20041;-84
2023/06/16 02:13:37;;;;;;;11.10;4.95;;;15.00;99.90;;;;;;5069945;28;20138;-83
2023/06/16 02:16:03;;;;;;;10.20;6.82;;;15.00;99.90;;;;;;5070219;28;20401;-83
2023/06/16 02:18:32;;;;;;;9.52;4.80;;;15.00;99.90;;;;;;5053368;28;20036;-83
2023/06/16 02:20:58;;;;;;;10.07;6.88;;;14.90;99.90;;;;;;5053273;28;20446;-82
2023/06/16 02:23:25;;;;;;;10.90;7.65;;;14.90;99.90;;;;;;5070004;28;20070;-82
2023/06/16 02:25:50;;;;;;;15.70;5.45;;;14.90;99.90;;;;;;5057163;28;20064;-82
2023/06/16 02:28:16;;;;;;;11.30;6.97;;;14.80;99.90;;;;;;5073943;28;20071;-82
2023/06/16 02:30:42;;;;;;;10.55;5.15;;;14.70;99.90;;;;;;5073562;28;20093;-84
2023/06/16 02:33:08;;;;;;;12.20;7.88;;;14.70;99.90;;;;;;5073903;28;20039;-83
2023/06/16 02:35:33;;;;;;;12.13;7.18;;;14.70;99.90;;;;;;5057194;28;20048;-83
2023/06/16 02:38:00;;;;;;;9.93;6.97;;;14.70;99.90;;;;;;5073365;28;20052;-82
2023/06/16 02:40:26;;;;;;;10.23;4.50;;;14.70;99.90;;;;;;5073427;28;20040;-83
2023/06/16 02:42:54;;;;;;;9.30;6.32;;;14.60;99.90;;;;;;5056841;28;20044;-83
2023/06/16 02:45:20;;;;;;;9.95;5.40;;;14.60;99.90;;;;;;5056992;28;20044;-83
2023/06/16 02:47:46;;;;;;;9.43;5.55;;;14.60;99.90;;;;;;5057041;28;20090;-83
2023/06/16 02:50:11;;;;;;;10.23;4.53;;;14.60;99.90;;;;;;5056394;28;20406;-82
2023/06/16 02:52:41;;;;;;;11.93;4.32;;;14.50;99.90;;;;;;5073547;28;20129;-83
2023/06/16 02:55:08;;;;;;;10.82;5.80;;;14.40;99.90;;;;;;5073799;28;20429;-82
2023/06/16 02:57:34;;;;;;;8.57;4.28;;;14.40;99.90;;;;;;5056596;28;20052;-82
2023/06/16 03:00:00;;;;;;;10.32;6.45;;;14.20;99.90;;;;;;5073158;28;20052;-83
2023/06/16 03:02:25;;;;;;;10.68;4.90;;;14.20;99.90;;;;;;5056767;28;20121;-82
2023/06/16 03:04:51;;;;;;;11.13;6.82;;;14.20;99.90;;;;;;5072022;28;20037;-82
2023/06/16 03:07:17;;;;;;;9.70;4.50;;;14.20;99.90;;;;;;5055544;28;20036;-83
2023/06/16 03:09:43;;;;;;;9.40;4.68;;;14.10;99.90;;;;;;5071186;28;20098;-83
2023/06/16 03:12:09;;;;;;;9.23;5.40;;;14.00;99.90;;;;;;5072035;28;20041;-83
2023/06/16 03:14:35;;;;;;;11.40;7.00;;;13.90;99.90;;;;;;5072595;28;20044;-83
2023/06/16 03:17:01;;;;;;;9.55;4.35;;;13.90;99.90;;;;;;5072645;28;20084;-83
2023/06/16 03:19:27;;;;;;;11.60;7.32;;;13.90;99.90;;;;;;5055849;28;20036;-83
2023/06/16 03:21:53;;;;;;;12.73;7.15;;;14.00;99.90;;;;;;5073103;28;20044;-83
2023/06/16 03:24:19;;;;;;;10.60;7.97;;;14.10;99.90;;;;;;5073314;28;20044;-83
2023/06/16 03:26:46;;;;;;;13.48;6.07;;;14.10;99.90;;;;;;5056409;28;20260;-83
2023/06/16 03:29:12;;;;;;;10.13;5.00;;;14.10;99.90;;;;;;5072880;28;20490;-83
2023/06/16 03:31:38;;;;;;;10.15;5.90;;;14.00;99.90;;;;;;5056126;28;20406;-83
2023/06/16 03:34:05;;;;;;;10.18;7.53;;;14.00;99.90;;;;;;5072834;28;20041;-83
2023/06/16 03:36:36;;;;;;;11.38;7.93;;;14.10;99.90;;;;;;5072643;28;20032;-83
2023/06/16 03:39:05;;;;;;;9.55;4.95;;;14.10;99.90;;;;;;5072763;28;20039;-83
2023/06/16 03:41:34;;;;;;;10.95;7.65;;;14.10;99.90;;;;;;5072277;28;20413;-83
2023/06/16 03:43:59;;;;;;;10.20;5.60;;;14.10;99.90;;;;;;5055957;28;20062;-83
2023/06/16 03:46:27;;;;;;;9.55;4.90;;;14.00;99.90;;;;;;5072658;28;20054;-83
2023/06/16 03:48:52;;;;;;;10.25;5.32;;;13.90;99.90;;;;;;5055963;28;20043;-83
2023/06/16 03:51:18;;;;;;;9.27;4.72;;;13.90;99.90;;;;;;5072193;28;20033;-83
2023/06/16 03:53:44;;;;;;;11.73;5.28;;;13.80;99.90;;;;;;5072603;28;20085;-82
2023/06/16 03:56:09;;;;;;;9.20;4.72;;;13.80;99.90;;;;;;5055633;28;20490;-83
2023/06/16 03:58:35;;;;;;;11.32;5.38;;;13.80;99.90;;;;;;5072406;28;20037;-83
2023/06/16 04:01:02;;;;;;;9.15;5.18;;;13.80;99.90;;;;;;5072313;28;20032;-83
2023/06/16 04:03:27;;;;;;;11.82;5.45;;;13.80;99.90;;;;;;5072233;28;20079;-83
2023/06/16 04:05:53;;;;;;;12.15;7.05;;;13.70;99.90;;;;;;5072155;28;20064;-83
2023/06/16 04:08:20;;;;;;;11.32;5.53;;;13.80;99.90;;;;;;5072154;28;20217;-83
2023/06/16 04:10:46;;;;;;;12.13;5.05;;;13.80;99.90;;;;;;5055372;28;20036;-83
2023/06/16 04:13:12;;;;;;;12.48;7.90;;;13.80;99.90;;;;;;5055451;28;20444;-83
2023/06/16 04:15:37;;;;;;;9.52;5.03;;;13.80;99.90;;;;;;5055540;28;20448;-83
2023/06/16 04:18:03;;;;;;;12.13;5.28;;;13.90;99.90;;;;;;5055236;28;20037;-83
2023/06/16 04:20:28;;;;;;;9.18;4.63;;;13.80;99.90;;;;;;5055227;28;20415;-83
2023/06/16 04:22:54;;;;;;;9.80;5.75;;;13.80;99.90;;;;;;5071644;28;20131;-83
2023/06/16 04:25:21;;;;;;;8.88;4.47;;;13.90;99.90;;;;;;5055550;28;20092;-83
2023/06/16 04:27:49;;;;;;;9.15;4.07;;;13.90;99.90;;;;;;5055108;28;20119;-83
2023/06/16 04:30:20;;;;;;;11.25;7.30;;;13.90;99.90;;;;;;5071424;28;20036;-83
2023/06/16 04:32:46;;;;;;;10.40;7.00;;;14.00;99.90;;;;;;5054991;28;20048;-83
2023/06/16 04:35:11;;;;;;;12.38;5.30;;;14.20;99.90;;;;;;5071748;28;20123;-83
2023/06/16 04:37:37;;;;;;;13.05;8.50;;;14.20;99.90;;;;;;5071561;28;20052;-83
2023/06/16 04:40:05;;;;;;;11.52;8.18;;;14.30;99.90;;;;;;5072700;28;20032;-83
2023/06/16 04:42:30;;;;;;;11.90;5.50;;;14.40;99.90;;;;;;5071618;28;20522;-83
2023/06/16 04:44:58;;;;;;;12.07;8.05;;;14.40;99.90;;;;;;5054897;28;20513;-83
2023/06/16 04:47:23;;;;;;;12.27;8.43;;;14.50;99.90;;;;;;5054504;28;20102;-83
2023/06/16 04:49:49;;;;;;;13.15;6.15;;;14.50;99.90;;;;;;5070894;28;20519;-83
2023/06/16 04:52:15;;;;;;;12.05;8.70;;;14.50;99.90;;;;;;5071337;28;20044;-83
2023/06/16 04:54:41;;;;;;;11.05;5.88;;;14.60;99.90;;;;;;5054617;28;20036;-83
2023/06/16 04:57:07;;;;;;;12.75;10.60;;;14.70;99.90;;;;;;5054894;28;20036;-83
2023/06/16 04:59:33;;;;;;;14.13;10.70;;;14.70;99.90;;;;;;5071204;28;20049;-83
2023/06/16 05:01:59;;;;;;;13.80;10.60;;;14.80;99.90;;;;;;5070957;28;20040;-83
2023/06/16 05:04:24;;;;;;;12.60;7.03;;;14.90;99.90;;;;;;5068496;28;20040;-83
2023/06/16 05:06:50;;;;;;;12.23;6.82;;;14.80;99.90;;;;;;5053353;28;20033;-84
2023/06/16 05:09:16;;;;;;;14.10;11.27;;;14.80;99.90;;;;;;5070305;28;20560;-84
2023/06/16 05:11:42;;;;;;;12.70;7.10;;;14.90;99.90;;;;;;5069166;28;20066;-84
2023/06/16 05:14:08;;;;;;;12.18;7.82;;;14.90;99.90;;;;;;5069927;28;20072;-83
2023/06/16 05:16:34;;;;;;;12.80;11.23;;;14.90;99.90;;;;;;5069983;28;20040;-84
2023/06/16 05:19:00;;;;;;;13.77;10.52;;;15.10;99.90;;;;;;5069886;28;20132;-83
2023/06/16 05:21:25;;;;;;;13.52;8.00;;;15.20;99.90;;;;;;5069263;28;20039;-83
2023/06/16 05:23:53;;;;;;;14.95;11.05;;;15.20;99.90;;;;;;5069770;28;20379;-83
2023/06/16 05:26:21;;;;;;;13.38;10.80;;;15.30;99.90;;;;;;5069850;28;20109;-84
2023/06/16 05:28:46;;;;;;;14.27;7.97;;;15.40;99.90;;;;;;5069901;28;20041;-84
2023/06/16 05:31:13;;;;;;;16.25;12.40;;;15.50;99.90;;;;;;5069367;28;20047;-83
2023/06/16 05:33:38;;;;;;;13.73;12.18;;;15.60;99.90;;;;;;5053177;28;20051;-84
2023/06/16 05:36:04;;;;;;;14.73;12.15;;;15.70;99.90;;;;;;5052988;28;20036;-84
2023/06/16 05:38:30;;;;;;;14.23;12.35;;;15.80;99.90;;;;;;5070424;28;20440;-84
2023/06/16 05:40:56;;;;;;;15.00;8.77;;;15.80;99.90;;;;;;5069720;28;20040;-84
2023/06/16 05:43:21;;;;;;;13.45;8.30;;;15.90;99.90;;;;;;5069979;28;20128;-83
2023/06/16 05:45:47;;;;;;;17.25;12.45;;;15.90;99.90;;;;;;5069817;28;20044;-83
2023/06/16 05:48:13;;;;;;;16.88;13.35;;;16.00;99.90;;;;;;5069427;28;20441;-84
2023/06/16 05:50:38;;;;;;;15.15;13.00;;;16.10;99.90;;;;;;5053004;28;20094;-84
2023/06/16 05:53:07;;;;;;;14.25;9.48;;;16.30;99.90;;;;;;5068831;28;20044;-84
2023/06/16 05:55:33;;;;;;;15.63;10.50;;;16.30;99.90;;;;;;5053148;28;20040;-84
2023/06/16 05:58:00;;;;;;;17.60;13.13;;;16.40;99.90;;;;;;5069449;28;20585;-84
2023/06/16 06:00:26;;;;;;;16.15;12.43;;;16.50;99.90;;;;;;5068960;28;20045;-84
2023/06/16 06:02:52;;;;;;;12.93;9.73;;;16.60;99.90;;;;;;5069652;28;20185;-84
2023/06/16 06:05:17;;;;;;;16.90;12.70;;;16.70;99.90;;;;;;5069779;28;20068;-84
2023/06/16 06:07:43;;;;;;;17.08;12.18;;;16.80;99.90;;;;;;5069905;28;20395;-84
2023/06/16 06:10:09;;;;;;;16.77;13.43;;;16.80;99.90;;;;;;5052943;28;20032;-83
2023/06/16 06:12:37;;;;;;;17.25;9.90;;;17.00;99.90;;;;;;5069489;28;20036;-84
2023/06/16 06:15:03;;;;;;;17.33;14.25;;;17.00;99.90;;;;;;5069595;28;20475;-84
2023/06/16 06:17:28;;;;;;;16.05;14.10;;;17.10;99.90;;;;;;5069647;28;20403;-84
2023/06/16 06:19:54;;;;;;;15.85;13.73;;;17.30;99.90;;;;;;5069355;28;20044;-84
2023/06/16 06:22:20;;;;;;;15.23;13.23;;;17.40;99.90;;;;;;5052704;28;20047;-84
2023/06/16 06:24:46;;;;;;;18.55;14.48;;;17.50;99.90;;;;;;5069945;28;20102;-84
2023/06/16 06:27:12;;;;;;;17.38;14.73;;;17.60;99.90;;;;;;5070500;28;20028;-84
2023/06/16 06:29:38;;;;;;;15.35;13.75;;;17.70;99.90;;;;;;5070529;28;20041;-84
2023/06/16 06:32:08;;;;;;;14.07;12.57;;;17.80;99.90;;;;;;5052570;28;20409;-84
2023/06/16 06:34:34;;;;;;;15.23;13.63;;;17.90;99.90;;;;;;5052770;28;20044;-84
2023/06/16 06:37:00;;;;;;;15.93;13.07;;;17.90;99.90;;;;;;5069200;28;20040;-84
2023/06/16 06:39:26;;;;;;;14.82;12.88;;;18.10;99.90;;;;;;5068348;28;20037;-84
2023/06/16 06:41:51;;;;;;;14.45;12.93;;;18.10;99.90;;;;;;5069113;28;20041;-84
2023/06/16 06:44:17;;;;;;;15.85;13.00;;;18.20;99.90;;;;;;5069377;28;20037;-84
2023/06/16 06:46:42;;;;;;;13.85;12.30;;;18.30;99.90;;;;;;5070370;28;20036;-86
2023/06/16 06:49:08;;;;;;;15.02;12.85;;;18.40;99.90;;;;;;5069067;28;20040;-86
2023/06/16 06:51:33;;;;;;;14.48;12.05;;;18.50;99.90;;;;;;5069307;28;20048;-86
2023/06/16 06:53:59;;;;;;;13.88;11.63;;;18.60;99.90;;;;;;5069426;28;20033;-86
2023/06/16 06:56:25;;;;;;;12.45;11.15;;;18.70;99.90;;;;;;5068758;28;20611;-86
2023/06/16 06:58:51;;;;;;;13.48;10.82;;;18.70;99.90;;;;;;5070224;28;20041;-86
2023/06/16 07:01:17;;;;;;;14.85;11.35;;;18.80;99.90;;;;;;5068935;28;20509;-86
2023/06/16 07:03:42;;;;;;;14.82;10.98;;;18.90;99.90;;;;;;5052609;28;20044;-86
2023/06/16 07:06:09;;;;;;;14.60;10.82;;;19.00;99.90;;;;;;5069260;28;20072;-86
2023/06/16 07:08:35;;;;;;;13.50;11.60;;;19.10;99.90;;;;;;5068518;28;20051;-86
2023/06/16 07:11:00;;;;;;;14.20;11.27;;;19.20;99.90;;;;;;5072372;28;20028;-86
2023/06/16 07:13:26;;;;;;;13.43;11.02;;;19.30;99.90;;;;;;5072460;28;20556;-86
2023/06/16 07:15:53;;;;;;;12.40;10.23;;;19.40;99.90;;;;;;5071143;28;20043;-86
2023/06/16 07:18:18;;;;;;;12.07;10.55;;;19.40;99.90;;;;;;5072826;28;20481;-86
2023/06/16 07:20:44;;;;;;;14.25;9.88;;;19.50;99.90;;;;;;5072639;28;20075;-86
2023/06/16 07:23:09;;;;;;;14.07;9.52;;;19.60;99.90;;;;;;5072692;28;20517;-86
2023/06/16 07:25:38;;;;;;;15.40;10.27;;;19.60;99.90;;;;;;5072978;28;20691;-86
2023/06/16 07:28:07;;;;;;;12.23;10.00;;;19.70;99.90;;;;;;5055369;28;20536;-86
2023/06/16 07:30:33;;;;;;;14.10;9.90;;;19.80;99.90;;;;;;5073606;28;20101;-87
2023/06/16 07:32:59;;;;;;;14.07;9.18;;;19.90;99.90;;;;;;5072275;28;20044;-86
2023/06/16 07:35:25;;;;;;;11.63;9.00;;;19.90;99.90;;;;;;5071987;28;20036;-86
2023/06/16 07:37:50;;;;;;;11.35;8.93;;;20.00;99.90;;;;;;5055346;28;20126;-86
2023/06/16 07:40:16;;;;;;;11.98;8.40;;;20.10;99.90;;;;;;5055132;28;20486;-86
2023/06/16 07:42:45;;;;;;;12.35;8.52;;;20.20;99.90;;;;;;5072102;28;20124;-86
2023/06/16 07:45:12;;;;;;;14.02;8.93;;;20.30;99.90;;;;;;5072442;28;20442;-86
2023/06/16 07:47:41;;;;;;;11.40;8.98;;;20.40;99.90;;;;;;5071725;28;20064;-86
2023/06/16 07:50:08;;;;;;;11.35;8.20;;;20.50;99.00;;;;;;5071822;28;20486;-86
2023/06/16 07:52:34;;;;;;;11.55;8.30;;;20.50;97.80;;;;;;5071955;28;20045;-86
2023/06/16 07:54:59;;;;;;;10.98;8.07;;;20.60;97.70;;;;;;5071806;28;20040;-87
2023/06/16 07:57:25;;;;;;;11.20;7.65;;;20.70;97.10;;;;;;5054906;28;20046;-87
2023/06/16 07:59:51;;;;;;;11.38;7.57;;;20.80;97.00;;;;;;5071688;28;20135;-86
2023/06/16 08:02:16;;;;;;;10.85;7.75;;;20.90;96.30;;;;;;5071731;28;20044;-87
2023/06/16 08:04:42;;;;;;;18.80;9.57;;;21.00;95.60;;;;;;5071905;28;20434;-87
2023/06/16 08:07:08;;;;;;;11.05;7.68;;;21.10;95.80;;;;;;5071398;28;20045;-87
2023/06/16 08:09:33;;;;;;;15.80;10.40;;;21.20;95.80;;;;;;5070379;28;20128;-87
2023/06/16 08:11:59;;;;;;;44.13;20.83;;;21.30;94.90;;;;;;5071503;28;20039;-86
2023/06/16 08:14:26;;;;;;;13.18;8.77;;;21.40;94.70;;;;;;5071299;28;20551;-86
2023/06/16 08:16:51;;;;;;;17.58;9.27;;;21.50;93.40;;;;;;5071100;28;20055;-86
2023/06/16 08:19:17;;;;;;;13.20;7.50;;;21.60;92.30;;;;;;5071419;28;20040;-86
2023/06/16 08:21:42;;;;;;;11.07;7.13;;;21.70;92.30;;;;;;5070494;28;20041;-87
2023/06/16 08:24:08;;;;;;;9.27;6.60;;;21.70;92.20;;;;;;5071466;28;20405;-86
2023/06/16 08:26:33;;;;;;;9.88;7.05;;;21.80;91.40;;;;;;5071356;28;20050;-87
2023/06/16 08:28:59;;;;;;;16.38;7.47;;;21.90;91.00;;;;;;5054338;28;20519;-86
2023/06/16 08:31:27;;;;;;;12.48;6.72;;;22.00;90.40;;;;;;5070847;28;20119;-87
2023/06/16 08:33:54;;;;;;;10.80;7.00;;;22.00;90.10;;;;;;5071178;28;20045;-87
2023/06/16 08:36:21;;;;;;;10.95;7.25;;;22.10;89.70;;;;;;5070788;28;20064;-87
2023/06/16 08:38:47;;;;;;;10.38;6.68;;;22.20;90.30;;;;;;5054512;28;20028;-86
2023/06/16 08:41:15;;;;;;;9.77;6.18;;;22.30;90.10;;;;;;5070598;28;20081;-87
2023/06/16 08:43:43;;;;;;;10.55;6.25;;;22.30;89.10;;;;;;5071055;28;20403;-86
2023/06/16 08:46:10;;;;;;;9.40;5.82;;;22.40;88.50;;;;;;5071441;28;20033;-86
2023/06/16 08:48:39;;;;;;;10.43;6.57;;;22.40;88.20;;;;;;5070572;28;20132;-86
2023/06/16 08:51:05;;;;;;;10.70;6.10;;;22.40;87.40;;;;;;5070677;28;20171;-86
2023/06/16 08:53:33;;;;;;;10.00;5.80;;;22.50;86.90;;;;;;5070970;28;20059;-87
2023/06/16 08:56:04;;;;;;;9.68;6.13;;;22.60;87.20;;;;;;5070748;28;20040;-86
2023/06/16 08:58:30;;;;;;;10.90;6.20;;;22.70;86.30;;;;;;5070732;28;20437;-86
2023/06/16 09:01:00;;;;;;;9.30;6.35;;;22.70;86.50;;;;;;5070439;28;20662;-86
2023/06/16 09:03:27;;;;;;;8.68;5.30;;;22.90;85.70;;;;;;5069596;28;20514;-86
2023/06/16 09:05:53;;;;;;;9.30;6.00;;;23.00;85.00;;;;;;5071093;28;20394;-87
2023/06/16 09:08:20;;;;;;;9.63;6.53;;;23.00;84.20;;;;;;5054415;28;20036;-87
2023/06/16 09:10:54;;;;;;;12.20;7.13;;;23.20;84.30;;;;;;5068132;28;20050;-86
2023/06/16 09:13:20;;;;;;;10.68;6.15;;;23.20;83.30;;;;;;5070328;28;20165;-86
2023/06/16 09:15:47;;;;;;;11.68;6.00;;;23.30;82.70;;;;;;5070214;28;20072;-86
2023/06/16 09:18:14;;;;;;;10.25;5.60;;;23.40;82.40;;;;;;5070006;28;20075;-86
2023/06/16 09:20:41;;;;;;;9.55;5.40;;;23.50;81.20;;;;;;5053249;28;20066;-86
2023/06/16 09:23:08;;;;;;;8.88;5.80;;;23.60;81.60;;;;;;5070385;28;20045;-87
2023/06/16 09:25:35;;;;;;;9.90;6.07;;;23.70;80.30;;;;;;5053716;28;20053;-86
2023/06/16 09:28:09;;;;;;;10.80;5.90;;;23.80;80.40;;;;;;5070301;28;20044;-86
2023/06/16 09:30:35;;;;;;;10.18;5.45;;;23.90;80.60;;;;;;5069887;28;20040;-86
2023/06/16 09:33:01;;;;;;;8.70;5.47;;;24.00;78.60;;;;;;5069651;28;20049;-86
2023/06/16 09:35:29;;;;;;;21.05;6.63;;;24.10;77.50;;;;;;5069953;28;20043;-86
2023/06/16 09:37:57;;;;;;;12.63;5.68;;;24.20;77.30;;;;;;5069545;28;20102;-86
2023/06/16 09:40:31;;;;;;;9.45;5.63;;;24.20;77.00;;;;;;5069709;28;20040;-87
2023/06/16 09:43:06;;;;;;;10.05;5.60;;;24.40;77.60;;;;;;5070007;28;20041;-86
2023/06/16 09:45:33;;;;;;;10.80;6.32;;;24.40;77.60;;;;;;5053620;28;20032;-86
2023/06/16 09:48:10;;;;;;;12.35;6.45;;;24.50;77.40;;;;;;5053302;28;20047;-87
2023/06/16 09:50:37;;;;;;;16.88;7.80;;;24.60;78.30;;;;;;5069637;28;20078;-86
2023/06/16 09:53:07;;;;;;;11.57;6.00;;;24.70;76.20;;;;;;5068955;28;20498;-86
2023/06/16 09:55:37;;;;;;;22.13;6.78;;;24.70;76.20;;;;;;5068995;28;20097;-86
2023/06/16 09:58:03;;;;;;;12.60;5.50;;;24.80;75.90;;;;;;5069193;28;20074;-86
2023/06/16 10:00:30;;;;;;;9.63;5.43;;;24.80;73.90;;;;;;5066149;28;20071;-86
2023/06/16 10:02:57;;;;;;;9.43;5.82;;;24.90;73.10;;;;;;5069749;28;20113;-87
2023/06/16 10:05:25;;;;;;;9.35;5.40;;;25.00;71.80;;;;;;5069783;28;20505;-87
2023/06/16 10:07:55;;;;;;;9.00;5.50;;;25.00;72.20;;;;;;5069803;28;20053;-86
2023/06/16 10:10:30;;;;;;;10.02;5.40;;;25.10;71.70;;;;;;5069296;28;20048;-86
2023/06/16 10:12:58;;;;;;;10.63;4.85;;;25.20;71.80;;;;;;5069625;28;20502;-86
2023/06/16 10:15:26;;;;;;;11.38;4.80;;;25.20;70.70;;;;;;5069763;28;20036;-87
2023/06/16 10:17:55;;;;;;;7.95;4.55;;;25.30;69.70;;;;;;5052491;28;20068;-86
2023/06/16 10:20:25;;;;;;;9.07;4.78;;;25.50;69.30;;;;;;5069638;28;20044;-87
2023/06/16 10:22:51;;;;;;;9.05;5.20;;;25.50;68.50;;;;;;5069513;28;20063;-86
2023/06/16 10:25:18;;;;;;;9.32;4.78;;;25.60;68.70;;;;;;5069571;28;20032;-87
2023/06/16 10:27:44;;;;;;;8.65;4.43;;;25.70;66.90;;;;;;5069853;28;20063;-87
2023/06/16 10:30:16;;;;;;;9.18;4.70;;;25.70;66.40;;;;;;5069072;28;20559;-87
2023/06/16 10:32:47;;;;;;;8.32;4.65;;;25.80;67.40;;;;;;5069505;28;20032;-86
2023/06/16 10:35:13;;;;;;;9.82;4.45;;;25.90;67.40;;;;;;5069776;28;20123;-87
2023/06/16 10:37:39;;;;;;;8.52;4.22;;;26.00;65.70;;;;;;5052426;28;20124;-86
2023/06/16 10:40:05;;;;;;;10.02;4.45;;;26.10;64.20;;;;;;5052445;28;20151;-87
2023/06/16 10:42:35;;;;;;;8.52;4.90;;;26.10;63.50;;;;;;5052739;28;20079;-87
2023/06/16 10:45:26;;;;;;;8.20;4.45;;;26.20;63.40;;;;;;5069640;28;20041;-86
2023/06/16 10:47:56;;;;;;;10.40;4.78;;;26.30;64.50;;;;;;5073251;28;20032;-87
2023/06/16 10:50:39;;;;;;;10.50;4.50;;;26.50;64.20;;;;;;5072500;28;20521;-86
2023/06/16 10:53:09;;;;;;;11.68;4.50;;;26.50;63.30;;;;;;5073046;28;20080;-87
2023/06/16 10:55:38;;;;;;;9.20;4.32;;;26.60;63.90;;;;;;5072944;28;20044;-86
2023/06/16 10:58:16;;;;;;;9.57;4.85;;;26.70;63.10;;;;;;5056313;28;20569;-87
2023/06/16 11:00:55;;;;;;;9.35;4.68;;;26.80;63.30;;;;;;5072484;28;20051;-87
2023/06/16 11:03:21;;;;;;;9.73;4.30;;;26.90;63.00;;;;;;5072995;28;20044;-87
2023/06/16 11:05:48;;;;;;;7.25;4.05;;;26.90;61.30;;;;;;5073007;28;20142;-87
2023/06/16 11:08:15;;;;;;;7.57;4.10;;;27.00;60.20;;;;;;5072718;28;20086;-87
2023/06/16 11:10:59;;;;;;;8.45;4.03;;;27.10;60.00;;;;;;5072284;28;20033;-87
2023/06/16 11:13:32;;;;;;;8.07;3.50;;;27.20;59.30;;;;;;5055327;28;20094;-87
2023/06/16 11:16:00;;;;;;;8.77;3.90;;;27.30;59.90;;;;;;5055937;28;20502;-87
2023/06/16 11:18:27;;;;;;;9.05;4.22;;;27.30;60.30;;;;;;5071972;28;20036;-87
2023/06/16 11:20:56;;;;;;;7.95;4.10;;;27.40;59.80;;;;;;5071582;28;20049;-87
2023/06/16 11:23:22;;;;;;;9.43;3.95;;;27.50;58.60;;;;;;5073034;28;20040;-87
2023/06/16 11:25:50;;;;;;;9.20;4.18;;;27.50;58.80;;;;;;5073098;28;20033;-87
2023/06/16 11:28:19;;;;;;;8.35;4.00;;;27.50;57.60;;;;;;5073120;28;20051;-87
2023/06/16 11:30:46;;;;;;;7.57;3.67;;;27.60;57.30;;;;;;5056242;28;20072;-87
2023/06/16 11:33:15;;;;;;;9.25;3.63;;;27.70;56.50;;;;;;5072881;28;20040;-87
2023/06/16 11:35:41;;;;;;;6.60;3.50;;;27.70;55.60;;;;;;5072989;28;20048;-87
2023/06/16 11:38:07;;;;;;;7.97;3.15;;;27.70;56.30;;;;;;5072905;28;20383;-86
2023/06/16 11:40:33;;;;;;;7.13;3.20;;;27.80;54.90;;;;;;5056111;28;20043;-87
2023/06/16 11:43:05;;;;;;;8.88;3.47;;;27.80;53.20;;;;;;5072724;28;20494;-87
2023/06/16 11:45:32;;;;;;;;;;;27.90;53.90;;;;;;5070302;28;20052;-87
2023/06/16 11:47:59;;;;;;;7.00;3.35;;;27.90;54.90;;;;;;5070564;28;19927;-87
2023/06/16 11:50:26;;;;;;;9.95;3.35;;;27.90;53.70;;;;;;5072645;28;20498;-87
2023/06/16 11:52:52;;;;;;;8.70;3.30;;;28.00;52.70;;;;;;5071602;28;20116;-87
2023/06/16 11:55:19;;;;;;;8.07;3.42;;;28.00;51.60;;;;;;5071980;28;20565;-87
2023/06/16 11:57:45;;;;;;;10.18;3.45;;;27.90;52.20;;;;;;5072010;28;20151;-87
2023/06/16 12:00:12;;;;;;;8.73;3.50;;;28.00;53.10;;;;;;5071378;28;20603;-87
2023/06/16 12:02:40;;;;;;;8.43;3.20;;;28.20;52.40;;;;;;5071780;28;20573;-87
2023/06/16 12:05:10;;;;;;;8.40;4.03;;;28.20;50.80;;;;;;5071333;28;20115;-87
2023/06/16 12:07:36;;;;;;;7.85;3.17;;;28.30;51.20;;;;;;5071677;28;20075;-87
2023/06/16 12:10:06;;;;;;;9.75;3.15;;;28.40;51.20;;;;;;5071174;28;20059;-87
2023/06/16 12:12:32;;;;;;;7.40;3.30;;;28.50;50.50;;;;;;5054883;28;20044;-87
2023/06/16 12:15:00;;;;;;;8.25;3.28;;;28.70;50.80;;;;;;5054882;28;20409;-87
2023/06/16 12:17:26;;;;;;;7.95;3.00;;;28.80;50.90;;;;;;5055098;28;20126;-87
2023/06/16 12:19:52;;;;;;;7.80;3.38;;;28.80;50.90;;;;;;5070452;28;20113;-88
2023/06/16 12:22:19;;;;;;;9.15;3.20;;;28.80;50.60;;;;;;5070812;28;20037;-87
2023/06/16 12:24:47;;;;;;;8.68;3.03;;;28.90;50.00;;;;;;5054806;28;20436;-87
2023/06/16 12:27:25;;;;;;;7.30;2.85;;;29.00;50.60;;;;;;5053997;28;20525;-87
2023/06/16 12:29:58;;;;;;;8.55;3.25;;;29.10;50.80;;;;;;5070782;28;20044;-87
2023/06/16 12:32:31;;;;;;;8.25;3.17;;;29.20;49.60;;;;;;5071290;28;20542;-88
2023/06/16 12:34:57;;;;;;;7.40;3.17;;;29.40;50.30;;;;;;5054735;28;20134;-87
2023/06/16 12:37:26;;;;;;;7.68;3.38;;;29.30;49.30;;;;;;5070928;28;20489;-87
2023/06/16 12:40:06;;;;;;;7.22;3.20;;;29.40;48.80;;;;;;5070413;28;20085;-87